Time;durP1;ratioP1;P1;durP2;ratioP2;P2;SDS_P1;SDS_P2;PMS_P1;PMS_P2;Temp;Humidity;BMP_temperature;BMP_pressure;BME280_temperature;BME280_humidity;BME280_pressure;Samples;Min_cycle;Max_cycle;Signal;HPM_P1;HPM_P2
2023/11/01 00:01:52;;;;;;;2.70;1.50;;;;;;;12.75;98.06;97602.44;4174451;28;20674;-84
2023/11/01 00:04:16;;;;;;;2.90;1.60;;;;;;;12.78;98.19;97601.34;4183364;28;21028;-85
2023/11/01 00:06:39;;;;;;;2.30;1.37;;;;;;;12.83;97.87;97609.66;4186548;28;20670;-85
2023/11/01 00:09:02;;;;;;;4.70;1.70;;;;;;;12.83;97.12;97610.47;4175261;28;20613;-85
2023/11/01 00:11:25;;;;;;;3.73;1.43;;;;;;;12.84;98.21;97604.31;4179598;28;20666;-85
2023/11/01 00:13:48;;;;;;;1.73;1.27;;;;;;;12.87;98.50;97604.03;4163967;28;20617;-84
2023/11/01 00:16:13;;;;;;;4.00;1.80;;;;;;;12.89;98.75;97596.06;4164913;28;20624;-84
2023/11/01 00:18:36;;;;;;;4.07;1.90;;;;;;;12.87;97.14;97604.03;4191400;28;21032;-84
2023/11/01 00:20:59;;;;;;;2.10;1.50;;;;;;;12.87;97.42;97609.28;4187652;28;20628;-85
2023/11/01 00:23:23;;;;;;;3.87;2.40;;;;;;;12.90;97.29;97603.78;4176788;28;20649;-84
2023/11/01 00:25:46;;;;;;;1.70;1.20;;;;;;;12.93;98.06;97595.66;4163992;28;20606;-84
2023/11/01 00:28:09;;;;;;;3.50;1.40;;;;;;;12.92;97.62;97599.22;4176562;28;20605;-84
2023/11/01 00:30:32;;;;;;;2.30;1.37;;;;;;;12.92;97.08;97586.13;4158412;28;21249;-85
2023/11/01 00:32:57;;;;;;;2.70;1.20;;;;;;;12.92;96.92;97585.31;4207271;28;20680;-85
2023/11/01 00:35:01;;;;;;;2.13;1.77;;;;;;;12.91;96.07;97587.09;4153528;28;20626;-84
2023/11/01 00:37:06;;;;;;;2.50;1.40;;;;;;;12.86;96.64;97586.66;4175154;28;20621;-85
2023/11/01 00:39:10;;;;;;;2.53;1.50;;;;;;;12.83;97.30;97586.94;4158148;28;20724;-84
2023/11/01 00:41:15;;;;;;;3.37;1.40;;;;;;;12.78;97.87;97586.47;4164385;28;21087;-85
2023/11/01 00:43:18;;;;;;;2.77;1.40;;;;;;;12.77;98.83;97587.41;4159419;28;20666;-84
2023/11/01 00:45:27;;;;;;;2.53;1.13;;;;;;;12.72;98.12;97584.38;4163735;28;20695;-84
2023/11/01 00:47:43;;;;;;;3.13;1.53;;;;;;;12.69;98.60;97582.00;4195846;28;20624;-84
2023/11/01 00:49:48;;;;;;;3.63;1.30;;;;;;;12.68;98.82;97572.50;4165454;28;20640;-84
2023/11/01 00:51:59;;;;;;;3.07;1.47;;;;;;;12.67;98.99;97571.81;4176494;28;20624;-84
2023/11/01 00:54:08;;;;;;;1.67;1.20;;;;;;;12.70;98.84;97582.84;4164771;28;20720;-84
2023/11/01 00:56:12;;;;;;;2.30;1.33;;;;;;;12.68;99.21;97583.94;4189655;28;20628;-84
2023/11/01 00:58:28;;;;;;;2.87;1.40;;;;;;;12.68;98.49;97574.28;4191427;28;20705;-84
2023/11/01 01:00:33;;;;;;;2.50;1.50;;;;;;;12.69;99.72;97582.00;4163655;28;20617;-84
2023/11/01 01:02:42;;;;;;;1.60;1.13;;;;;;;12.72;99.20;97578.31;4173770;28;21186;-85
2023/11/01 01:04:51;;;;;;;2.63;1.40;;;;;;;12.75;99.64;97576.25;4173798;28;20698;-84
2023/11/01 01:06:58;;;;;;;2.77;1.30;;;;;;;12.76;99.63;97570.06;4162771;28;20656;-85
2023/11/01 01:09:07;;;;;;;2.60;1.37;;;;;;;12.76;98.57;97574.47;4190715;28;20627;-85
2023/11/01 01:11:20;;;;;;;2.13;1.40;;;;;;;12.76;98.55;97570.06;4180163;28;20662;-84
2023/11/01 01:13:29;;;;;;;3.70;1.30;;;;;;;12.75;99.15;97576.25;4195693;28;20631;-84
2023/11/01 01:15:45;;;;;;;2.17;1.20;;;;;;;12.79;99.23;97569.81;4195184;28;20624;-84
2023/11/01 01:18:07;;;;;;;3.20;1.53;;;;;;;12.81;97.93;97567.06;4163895;28;20631;-84
2023/11/01 01:20:17;;;;;;;2.50;1.30;;;;;;;12.83;98.37;97566.00;4177952;28;20662;-84
2023/11/01 01:22:24;;;;;;;2.23;1.43;;;;;;;12.86;98.08;97568.34;4180544;28;20644;-84
2023/11/01 01:24:33;;;;;;;2.47;1.10;;;;;;;12.87;99.23;97571.78;4167438;28;20629;-84
2023/11/01 01:26:38;;;;;;;2.60;1.13;;;;;;;12.88;99.10;97569.03;4190355;28;20729;-84
2023/11/01 01:28:46;;;;;;;5.40;1.63;;;;;;;12.89;98.33;97573.31;4189522;28;20623;-84
2023/11/01 01:30:57;;;;;;;2.40;1.23;;;;;;;12.91;97.91;97567.94;4178159;28;20651;-84
2023/11/01 01:33:09;;;;;;;6.50;1.90;;;;;;;12.90;97.56;97572.38;4177147;28;20625;-84
2023/11/01 01:35:16;;;;;;;2.73;1.63;;;;;;;12.92;98.26;97565.19;4157417;28;20713;-84
2023/11/01 01:37:23;;;;;;;6.80;1.33;;;;;;;12.92;98.30;97565.19;4209079;28;20651;-84
2023/11/01 01:39:29;;;;;;;2.13;1.37;;;;;;;12.95;97.79;97569.34;4192850;28;20624;-84
2023/11/01 01:41:52;;;;;;;4.27;1.40;;;;;;;12.97;97.59;97563.00;4179155;28;20613;-84
2023/11/01 01:44:15;;;;;;;2.97;1.50;;;;;;;12.95;98.07;97564.94;4165504;28;20614;-84
2023/11/01 01:46:38;;;;;;;3.70;1.60;;;;;;;12.97;98.09;97556.97;4164065;28;20664;-84
2023/11/01 01:49:02;;;;;;;2.23;1.30;;;;;;;12.98;98.78;97548.97;4165550;28;20620;-85
2023/11/01 01:51:13;;;;;;;8.93;1.87;;;;;;;13.00;98.26;97551.47;4176211;28;20640;-84
2023/11/01 01:53:25;;;;;;;4.73;1.20;;;;;;;12.98;98.46;97548.97;4162271;28;20638;-85
2023/11/01 01:55:30;;;;;;;2.00;1.30;;;;;;;12.99;98.57;97549.78;4159100;28;20661;-84
2023/11/01 01:57:39;;;;;;;2.50;1.13;;;;;;;12.98;98.46;97542.91;4206164;28;20630;-84
2023/11/01 02:00:04;;;;;;;3.67;1.30;;;;;;;12.98;98.94;97537.69;4180226;28;20616;-85
2023/11/01 02:02:34;;;;;;;3.33;1.60;;;;;;;12.97;99.96;97538.63;4181424;28;20680;-84
2023/11/01 02:04:57;;;;;;;4.17;1.33;;;;;;;12.94;99.05;97529.25;4181253;28;20710;-84
2023/11/01 02:07:22;;;;;;;2.70;1.30;;;;;;;12.93;99.01;97519.75;4170132;28;20710;-84
2023/11/01 02:09:26;;;;;;;2.83;1.30;;;;;;;12.90;99.01;97517.41;4194580;28;20727;-84
2023/11/01 02:11:36;;;;;;;2.50;1.27;;;;;;;12.90;98.98;97513.94;4186924;28;20625;-84
2023/11/01 02:13:59;;;;;;;4.03;1.60;;;;;;;12.90;99.03;97514.78;4201741;28;20598;-84
2023/11/01 02:16:22;;;;;;;3.13;1.70;;;;;;;12.89;99.33;97513.13;4193532;28;20662;-84
2023/11/01 02:18:25;;;;;;;2.80;1.37;;;;;;;12.90;98.39;97504.31;4162537;28;20657;-85
2023/11/01 02:20:29;;;;;;;2.23;1.30;;;;;;;12.89;99.10;97500.03;4207937;28;20619;-85
2023/11/01 02:22:34;;;;;;;3.23;1.57;;;;;;;12.90;99.03;97499.09;4183503;28;20674;-85
2023/11/01 02:24:38;;;;;;;2.00;1.37;;;;;;;12.88;98.47;97495.75;4176228;28;20622;-85
2023/11/01 02:26:41;;;;;;;2.70;1.50;;;;;;;12.87;98.47;97501.13;4156419;28;21191;-84
2023/11/01 02:28:45;;;;;;;3.20;1.50;;;;;;;12.86;98.67;97508.16;4169633;28;21066;-84
2023/11/01 02:30:48;;;;;;;2.67;1.73;;;;;;;12.86;98.65;97505.53;4157070;28;20708;-84
2023/11/01 02:32:52;;;;;;;4.70;1.50;;;;;;;12.89;97.43;97510.50;4194919;28;21051;-84
2023/11/01 02:34:54;;;;;;;2.40;1.80;;;;;;;12.91;97.02;97508.56;4171712;28;20651;-84
2023/11/01 02:36:57;;;;;;;2.00;1.40;;;;;;;12.92;97.98;97502.38;4177735;28;20678;-84
2023/11/01 02:38:59;;;;;;;2.43;1.50;;;;;;;12.91;98.02;97503.34;4170539;28;20639;-84
2023/11/01 02:41:04;;;;;;;3.57;1.57;;;;;;;12.91;97.59;97498.09;4192410;28;20659;-85
2023/11/01 02:43:08;;;;;;;4.50;1.43;;;;;;;12.90;97.63;97509.56;4190964;28;20693;-84
2023/11/01 02:45:11;;;;;;;2.53;1.60;;;;;;;12.89;98.79;97497.41;4176250;28;20718;-84
2023/11/01 02:47:15;;;;;;;3.27;1.70;;;;;;;12.87;98.96;97494.13;4179729;28;20696;-84
2023/11/01 02:49:18;;;;;;;3.60;1.43;;;;;;;12.87;98.51;97498.50;4187777;28;20674;-84
2023/11/01 02:51:22;;;;;;;4.70;1.90;;;;;;;12.86;97.70;97495.06;4174429;28;20668;-84
2023/11/01 02:53:25;;;;;;;2.20;1.53;;;;;;;12.86;97.40;97491.63;4160019;28;20902;-84
2023/11/01 02:55:29;;;;;;;3.50;1.80;;;;;;;12.86;98.06;97491.63;4170026;28;20617;-84
2023/11/01 02:57:34;;;;;;;2.27;1.50;;;;;;;12.86;98.39;97487.22;4160629;28;20614;-85
2023/11/01 02:59:38;;;;;;;5.63;1.30;;;;;;;12.85;99.44;97488.19;4175694;28;20708;-85
2023/11/01 03:01:42;;;;;;;2.30;1.40;;;;;;;12.86;98.54;97486.41;4174405;28;20660;-83
2023/11/01 03:03:45;;;;;;;2.20;1.40;;;;;;;12.86;98.53;97491.63;4189947;28;21204;-84
2023/11/01 03:05:49;;;;;;;2.70;1.60;;;;;;;12.83;98.69;97487.47;4171323;28;20967;-84
2023/11/01 03:07:53;;;;;;;3.50;1.43;;;;;;;12.83;97.98;97489.28;4185260;28;20727;-84
2023/11/01 03:09:55;;;;;;;3.67;1.73;;;;;;;12.82;98.33;97491.06;4156287;28;20637;-84
2023/11/01 03:11:59;;;;;;;4.40;1.60;;;;;;;12.81;97.98;97494.59;4205636;28;20728;-83
2023/11/01 03:14:03;;;;;;;2.37;1.40;;;;;;;12.78;97.10;97491.44;4161183;28;20622;-84
2023/11/01 03:16:06;;;;;;;3.37;1.93;;;;;;;12.78;97.20;97486.22;4157831;28;21234;-84
2023/11/01 03:18:09;;;;;;;2.10;1.30;;;;;;;12.76;96.41;97486.34;4175590;28;20674;-84
2023/11/01 03:20:12;;;;;;;2.90;1.40;;;;;;;12.75;96.34;97474.22;4161192;28;20630;-84
2023/11/01 03:22:18;;;;;;;3.60;1.50;;;;;;;12.76;97.14;97481.09;4191502;28;20620;-84
2023/11/01 03:24:21;;;;;;;2.50;1.40;;;;;;;12.76;96.07;97478.50;4190311;28;20659;-84
2023/11/01 03:26:25;;;;;;;3.03;1.50;;;;;;;12.76;95.90;97475.03;4204098;28;20637;-84
2023/11/01 03:28:28;;;;;;;3.23;1.40;;;;;;;12.75;96.88;97471.59;4203838;28;20643;-84
2023/11/01 03:30:33;;;;;;;2.33;1.23;;;;;;;12.74;96.39;97466.50;4187733;28;20987;-84
2023/11/01 03:32:36;;;;;;;6.13;1.80;;;;;;;12.75;96.10;97460.31;4192654;28;20612;-84
2023/11/01 03:34:39;;;;;;;3.57;1.40;;;;;;;12.75;95.30;97462.91;4168522;28;20642;-84
2023/11/01 03:36:43;;;;;;;3.57;1.60;;;;;;;12.74;96.18;97467.31;4168235;28;20634;-84
2023/11/01 03:38:46;;;;;;;3.20;1.77;;;;;;;12.75;94.89;97466.34;4161331;28;20660;-84
2023/11/01 03:40:50;;;;;;;3.80;1.50;;;;;;;12.75;94.85;97474.22;4159844;28;20699;-84
2023/11/01 03:42:53;;;;;;;2.80;1.40;;;;;;;12.74;95.96;97467.31;4164018;28;20622;-84
2023/11/01 03:44:56;;;;;;;2.60;1.17;;;;;;;12.73;96.11;97470.91;4160094;28;20617;-84
2023/11/01 03:47:01;;;;;;;3.70;1.33;;;;;;;12.72;96.41;97471.03;4160654;28;20721;-84
2023/11/01 03:49:05;;;;;;;2.80;1.40;;;;;;;12.73;95.55;97470.06;4193236;28;20660;-84
2023/11/01 03:51:08;;;;;;;1.93;1.40;;;;;;;12.73;95.42;97464.81;4176500;28;20624;-84
2023/11/01 03:53:13;;;;;;;3.50;1.50;;;;;;;12.73;95.49;97470.91;4160585;28;20630;-84
2023/11/01 03:55:16;;;;;;;2.33;1.20;;;;;;;12.72;95.36;97460.56;4193886;28;20696;-84
2023/11/01 03:57:19;;;;;;;2.60;1.83;;;;;;;12.72;96.67;97463.19;4192880;28;20711;-84
2023/11/01 03:59:21;;;;;;;3.47;2.10;;;;;;;12.71;95.67;97462.34;4171999;28;20648;-83
2023/11/01 04:01:25;;;;;;;3.17;1.50;;;;;;;12.69;95.85;97453.00;4189587;28;20715;-84
2023/11/01 04:03:29;;;;;;;2.67;1.53;;;;;;;12.66;97.18;97453.25;4160867;28;20614;-84
2023/11/01 04:05:33;;;;;;;3.53;1.43;;;;;;;12.62;96.11;97446.63;4159261;28;20614;-84
2023/11/01 04:07:35;;;;;;;3.77;1.57;;;;;;;12.60;96.14;97450.31;4174310;28;20647;-84
2023/11/01 04:09:38;;;;;;;2.23;1.40;;;;;;;12.59;95.82;97451.28;4160831;28;20660;-84
2023/11/01 04:11:42;;;;;;;3.40;1.60;;;;;;;12.58;96.63;97454.88;4192152;28;20677;-84
2023/11/01 04:13:45;;;;;;;3.60;1.37;;;;;;;12.56;95.15;97456.78;4189425;28;21242;-84
2023/11/01 04:15:47;;;;;;;3.50;1.60;;;;;;;12.55;96.18;97448.09;4174355;28;21052;-84
2023/11/01 04:17:52;;;;;;;3.27;1.73;;;;;;;12.54;95.56;97448.22;4191155;28;20624;-84
2023/11/01 04:19:58;;;;;;;4.80;1.80;;;;;;;12.51;95.52;97444.09;4178658;28;20623;-84
2023/11/01 04:22:02;;;;;;;4.47;1.50;;;;;;;12.47;96.52;97441.88;4179666;28;20658;-84
2023/11/01 04:24:09;;;;;;;3.23;2.67;;;;;;;12.43;95.53;97440.47;4180962;28;20652;-84
2023/11/01 04:26:13;;;;;;;4.40;1.83;;;;;;;12.40;96.69;97435.53;4178686;28;20629;-84
2023/11/01 04:28:16;;;;;;;3.83;1.40;;;;;;;12.36;96.55;97439.38;4182691;28;20620;-84
2023/11/01 04:30:19;;;;;;;2.60;1.30;;;;;;;12.32;96.37;97436.19;4168282;28;20711;-84
2023/11/01 04:32:22;;;;;;;2.40;1.80;;;;;;;12.31;96.62;97431.06;4191809;28;20603;-84
2023/11/01 04:34:25;;;;;;;3.43;1.40;;;;;;;12.28;95.77;97437.41;4160229;28;21056;-84
2023/11/01 04:36:30;;;;;;;4.20;1.63;;;;;;;12.27;95.74;97437.53;4176522;28;20635;-84
2023/11/01 04:38:33;;;;;;;11.17;1.63;;;;;;;12.26;95.67;97433.25;4209333;28;20627;-84
2023/11/01 04:40:37;;;;;;;3.80;1.40;;;;;;;12.26;96.28;97433.25;4172556;28;21473;-84
2023/11/01 04:42:41;;;;;;;3.27;1.60;;;;;;;12.25;96.38;97427.22;4155227;28;20660;-84
2023/11/01 04:44:46;;;;;;;3.50;1.27;;;;;;;12.25;94.68;97426.38;4159092;28;20650;-84
2023/11/01 04:46:49;;;;;;;2.50;1.30;;;;;;;12.23;95.14;97423.06;4192347;28;21040;-84
2023/11/01 04:48:53;;;;;;;2.50;1.40;;;;;;;12.21;96.78;97411.94;4156633;28;21267;-84
2023/11/01 04:51:00;;;;;;;4.97;1.57;;;;;;;12.19;96.65;97411.22;4160055;28;20627;-83
2023/11/01 04:53:10;;;;;;;4.10;1.80;;;;;;;12.14;95.34;97408.16;4163710;28;20633;-84
2023/11/01 04:55:14;;;;;;;2.77;1.20;;;;;;;12.13;95.88;97409.13;4162034;28;21194;-84
2023/11/01 04:57:19;;;;;;;2.13;1.33;;;;;;;12.12;97.04;97399.63;4179756;28;21086;-84
2023/11/01 04:59:41;;;;;;;3.50;1.30;;;;;;;12.10;97.16;97401.53;4177860;28;20618;-84
2023/11/01 05:01:47;;;;;;;2.03;1.17;;;;;;;12.09;95.76;97399.06;4178507;28;21066;-84
2023/11/01 05:03:56;;;;;;;2.63;1.00;;;;;;;12.08;96.26;97394.81;4179738;28;20671;-84
2023/11/01 05:06:01;;;;;;;2.17;1.20;;;;;;;12.05;96.72;97393.25;4192975;28;21181;-84
2023/11/01 05:08:25;;;;;;;4.70;1.37;;;;;;;12.02;96.82;97398.75;4167524;28;20616;-84
2023/11/01 05:10:48;;;;;;;3.80;1.20;;;;;;;12.00;97.05;97390.22;4177913;28;20652;-84
2023/11/01 05:13:11;;;;;;;3.13;1.10;;;;;;;11.96;96.50;97391.44;4175635;28;20617;-84
2023/11/01 05:15:36;;;;;;;2.23;1.20;;;;;;;11.91;96.23;97385.78;4167171;28;20621;-84
2023/11/01 05:17:40;;;;;;;1.87;1.40;;;;;;;11.87;95.57;97386.97;4177013;28;20648;-84
2023/11/01 05:19:43;;;;;;;3.37;1.67;;;;;;;11.82;94.92;97381.31;4193914;28;20615;-84
2023/11/01 05:21:46;;;;;;;3.83;1.33;;;;;;;11.82;95.62;97376.09;4179022;28;20681;-84
2023/11/01 05:23:50;;;;;;;4.73;1.47;;;;;;;11.82;96.41;97375.28;4176787;28;20655;-84
2023/11/01 05:25:54;;;;;;;2.80;1.43;;;;;;;11.82;94.61;97370.06;4188244;28;20654;-84
2023/11/01 05:27:58;;;;;;;3.10;1.50;;;;;;;11.82;95.45;97367.44;4177690;28;21269;-84
2023/11/01 05:30:01;;;;;;;3.20;1.37;;;;;;;11.80;95.88;97375.41;4179482;28;20652;-84
2023/11/01 05:32:05;;;;;;;2.40;1.17;;;;;;;11.79;96.34;97373.75;4178748;28;20667;-84
2023/11/01 05:34:13;;;;;;;2.13;1.27;;;;;;;11.75;96.29;97376.75;4162352;28;20631;-84
2023/11/01 05:36:16;;;;;;;3.00;1.50;;;;;;;11.69;95.58;97373.84;4193497;28;20738;-84
2023/11/01 05:38:20;;;;;;;2.83;1.37;;;;;;;11.63;96.37;97372.56;4181259;28;20689;-84
2023/11/01 05:40:27;;;;;;;3.43;1.20;;;;;;;11.57;96.73;97374.88;4177578;28;20635;-84
2023/11/01 05:42:32;;;;;;;2.10;1.30;;;;;;;11.51;96.73;97372.75;4178276;28;20725;-84
2023/11/01 05:44:38;;;;;;;2.37;1.30;;;;;;;11.46;96.69;97367.88;4173260;28;20620;-84
2023/11/01 05:46:42;;;;;;;2.77;1.50;;;;;;;11.41;95.03;97364.84;4192376;28;21204;-84
2023/11/01 05:48:47;;;;;;;2.20;1.73;;;;;;;11.38;96.34;97359.03;4163395;28;20720;-84
2023/11/01 05:50:50;;;;;;;2.90;1.40;;;;;;;11.35;97.80;97361.88;4195269;28;21067;-83
2023/11/01 05:53:14;;;;;;;4.70;1.83;;;;;;;11.32;96.13;97357.78;4189508;28;20640;-84
2023/11/01 05:55:17;;;;;;;5.43;3.87;;;;;;;11.26;97.98;97354.84;4174220;28;21553;-84
2023/11/01 05:57:37;;;;;;;4.57;2.97;;;;;;;11.20;96.04;97360.56;4179204;28;20628;-84
2023/11/01 05:59:54;;;;;;;5.80;3.20;;;;;;;11.15;97.76;97357.50;4177753;28;20730;-84
2023/11/01 06:01:59;;;;;;;3.00;2.50;;;;;;;11.13;97.42;97356.81;4179896;28;20686;-84
2023/11/01 06:04:05;;;;;;;4.50;3.10;;;;;;;11.11;97.45;97363.94;4173037;28;20636;-84
2023/11/01 06:06:28;;;;;;;3.53;2.93;;;;;;;11.06;98.18;97360.84;4179003;28;20618;-84
2023/11/01 06:08:51;;;;;;;4.67;2.67;;;;;;;11.03;98.32;97366.31;4165264;28;21188;-84
2023/11/01 06:11:14;;;;;;;3.60;2.20;;;;;;;10.99;98.06;97364.94;4192579;28;21058;-84
2023/11/01 06:13:21;;;;;;;3.13;2.03;;;;;;;10.94;97.42;97359.25;4160857;28;20647;-84
2023/11/01 06:15:37;;;;;;;2.83;2.43;;;;;;;10.93;98.49;97368.03;4188057;28;20631;-84
2023/11/01 06:18:00;;;;;;;3.20;2.90;;;;;;;10.90;97.90;97363.06;4177485;28;20624;-84
2023/11/01 06:20:07;;;;;;;4.70;4.30;;;;;;;10.87;98.72;97358.09;4191431;28;20642;-84
2023/11/01 06:22:16;;;;;;;3.57;2.40;;;;;;;10.85;99.23;97354.81;4169249;28;20636;-84
2023/11/01 06:24:39;;;;;;;9.60;2.67;;;;;;;10.81;96.93;97360.41;4181543;28;21225;-84
2023/11/01 06:26:44;;;;;;;5.70;2.10;;;;;;;10.75;97.15;97363.50;4178898;28;20632;-84
2023/11/01 06:28:51;;;;;;;2.90;2.60;;;;;;;10.72;97.97;97360.28;4174494;28;20715;-84
2023/11/01 06:30:57;;;;;;;3.77;3.10;;;;;;;10.72;96.91;97360.28;4176520;28;20708;-84
2023/11/01 06:33:02;;;;;;;3.93;2.20;;;;;;;10.78;97.77;97365.84;4189553;28;20635;-84
2023/11/01 06:35:08;;;;;;;2.67;2.03;;;;;;;10.90;98.35;97363.06;4151388;28;21230;-84
2023/11/01 06:37:13;;;;;;;3.53;2.80;;;;;;;11.05;97.83;97361.81;4172011;28;20651;-84
2023/11/01 06:39:37;;;;;;;4.67;2.70;;;;;;;11.17;97.82;97350.38;4175051;28;21231;-84
2023/11/01 06:42:01;;;;;;;3.10;2.73;;;;;;;11.31;97.72;97357.91;4193372;28;20624;-84
2023/11/01 06:44:26;;;;;;;3.30;2.17;;;;;;;11.44;97.30;97358.50;4188267;28;20639;-84
2023/11/01 06:46:49;;;;;;;2.10;1.80;;;;;;;11.51;96.56;97357.91;4193177;28;20596;-84
2023/11/01 06:48:59;;;;;;;5.23;2.10;;;;;;;11.57;97.63;97359.19;4163660;28;21320;-84
2023/11/01 06:51:22;;;;;;;2.20;1.90;;;;;;;11.67;95.84;97360.09;4166403;28;20657;-84
2023/11/01 06:53:31;;;;;;;2.43;1.93;;;;;;;11.77;96.73;97359.16;4177220;28;20632;-84
2023/11/01 06:55:54;;;;;;;2.23;2.03;;;;;;;11.82;95.34;97362.22;4201033;28;20658;-84
2023/11/01 06:58:17;;;;;;;2.80;2.10;;;;;;;11.81;95.64;97365.78;4191290;28;20608;-83
2023/11/01 07:00:33;;;;;;;3.20;2.87;;;;;;;11.76;96.56;97360.94;4175004;28;21288;-84
2023/11/01 07:02:43;;;;;;;6.70;5.03;;;;;;;11.74;95.73;97355.97;4189867;28;20750;-84
2023/11/01 07:05:06;;;;;;;5.50;4.60;;;;;;;11.74;95.21;97366.44;4179332;28;21055;-84
2023/11/01 07:07:15;;;;;;;6.60;4.93;;;;;;;11.75;95.15;97367.13;4171593;28;20629;-84
2023/11/01 07:09:42;;;;;;;4.97;4.20;;;;;;;11.82;96.34;97363.03;4189209;28;21165;-84
2023/11/01 07:12:05;;;;;;;4.30;2.93;;;;;;;11.84;96.05;97368.13;4180290;28;20667;-84
2023/11/01 07:14:15;;;;;;;4.80;2.80;;;;;;;11.79;95.32;97368.53;4184014;28;21174;-84
2023/11/01 07:16:41;;;;;;;3.33;2.40;;;;;;;11.72;97.43;97366.56;4178183;28;20628;-84
2023/11/01 07:19:05;;;;;;;2.83;2.17;;;;;;;11.68;96.23;97364.34;4168724;28;20613;-84
2023/11/01 07:21:28;;;;;;;3.63;2.33;;;;;;;11.70;97.75;97371.09;4176623;28;20613;-84
2023/11/01 07:23:51;;;;;;;4.50;2.80;;;;;;;11.75;98.29;97364.50;4163698;28;20606;-84
2023/11/01 07:25:58;;;;;;;6.20;2.70;;;;;;;11.73;96.30;97359.53;4189177;28;20631;-84
2023/11/01 07:28:09;;;;;;;2.87;2.37;;;;;;;11.66;97.52;97347.97;4189836;28;20629;-84
2023/11/01 07:30:32;;;;;;;3.83;2.90;;;;;;;11.64;96.38;97344.69;4178613;28;20636;-84
2023/11/01 07:32:57;;;;;;;2.83;2.23;;;;;;;11.65;98.44;97348.91;4191245;28;20619;-84
2023/11/01 07:35:04;;;;;;;3.20;2.70;;;;;;;11.61;96.18;97355.38;4171736;28;20629;-84
2023/11/01 07:37:27;;;;;;;4.17;3.77;;;;;;;11.57;98.05;97338.31;4176936;28;20625;-84
2023/11/01 07:39:35;;;;;;;4.33;3.60;;;;;;;11.54;97.69;97343.78;4173300;28;20744;-84
2023/11/01 07:41:59;;;;;;;4.30;3.70;;;;;;;11.54;97.11;97354.22;4176643;28;20647;-84
2023/11/01 07:44:04;;;;;;;4.80;3.67;;;;;;;11.58;98.52;97346.00;4172747;28;20664;-84
2023/11/01 07:46:28;;;;;;;4.50;3.37;;;;;;;11.66;99.15;97347.97;4185986;28;20967;-84
2023/11/01 07:48:35;;;;;;;3.63;3.30;;;;;;;11.77;98.83;97351.31;4188581;28;20983;-84
2023/11/01 07:50:58;;;;;;;3.30;3.00;;;;;;;11.89;98.98;97355.50;4180959;28;21293;-84
2023/11/01 07:53:02;;;;;;;2.80;2.40;;;;;;;11.90;97.22;97354.56;4207259;28;20645;-84
2023/11/01 07:55:06;;;;;;;2.53;2.20;;;;;;;11.98;98.62;97350.34;4181838;28;20628;-84
2023/11/01 07:57:09;;;;;;;2.67;2.47;;;;;;;11.99;97.60;97351.97;4178888;28;20681;-84
2023/11/01 07:59:13;;;;;;;3.33;3.03;;;;;;;12.07;98.65;97346.09;4168325;28;20657;-84
2023/11/01 08:01:16;;;;;;;4.73;3.47;;;;;;;12.10;99.17;97346.66;4161906;28;21260;-84
2023/11/01 08:03:20;;;;;;;4.43;2.93;;;;;;;12.20;99.70;97344.09;4180322;28;20631;-84
2023/11/01 08:05:25;;;;;;;4.40;3.70;;;;;;;12.27;97.19;97346.84;4177198;28;21371;-84
2023/11/01 08:07:28;;;;;;;3.97;3.30;;;;;;;12.29;98.01;97331.03;4178960;28;20716;-84
2023/11/01 08:09:31;;;;;;;7.60;3.40;;;;;;;12.36;98.21;97337.41;4179960;28;20681;-84
2023/11/01 08:11:34;;;;;;;4.43;3.90;;;;;;;12.57;97.71;97344.19;4178360;28;21436;-84
2023/11/01 08:13:38;;;;;;;5.00;4.50;;;;;;;12.74;96.62;97335.66;4159687;28;20625;-84
2023/11/01 08:15:41;;;;;;;9.10;6.73;;;;;;;12.90;97.02;97330.72;4190367;28;20624;-84
2023/11/01 08:17:44;;;;;;;7.73;5.60;;;;;;;13.05;95.99;97332.81;4196661;28;20639;-84
2023/11/01 08:19:48;;;;;;;7.43;4.00;;;;;;;13.16;95.42;97332.66;4180184;28;20651;-84
2023/11/01 08:21:52;;;;;;;4.07;3.23;;;;;;;13.29;94.85;97341.03;4176474;28;20643;-84
2023/11/01 08:23:56;;;;;;;3.83;3.40;;;;;;;13.41;95.03;97343.41;4178635;28;20661;-84
2023/11/01 08:25:58;;;;;;;3.70;3.07;;;;;;;13.48;94.27;97327.94;4211719;28;20630;-84
2023/11/01 08:28:01;;;;;;;3.47;2.70;;;;;;;13.39;94.50;97328.78;4193569;28;20624;-84
2023/11/01 08:30:06;;;;;;;4.00;3.20;;;;;;;13.46;94.98;97332.50;4162770;28;20671;-84
2023/11/01 08:32:08;;;;;;;5.73;2.77;;;;;;;13.67;96.27;97331.34;4192215;28;20683;-84
2023/11/01 08:34:12;;;;;;;4.40;3.30;;;;;;;13.79;94.91;97331.03;4209323;28;20676;-84
2023/11/01 08:36:15;;;;;;;4.03;3.37;;;;;;;13.86;95.33;97326.88;4181790;28;20620;-84
2023/11/01 08:38:20;;;;;;;3.33;2.97;;;;;;;13.91;95.35;97329.88;4193064;28;20662;-84
2023/11/01 08:40:23;;;;;;;3.50;3.10;;;;;;;14.02;96.28;97324.44;4179441;28;21054;-84
2023/11/01 08:42:28;;;;;;;3.73;3.00;;;;;;;14.14;94.84;97329.38;4163101;28;20632;-84
2023/11/01 08:44:32;;;;;;;4.23;3.03;;;;;;;14.27;95.24;97326.44;4207080;28;21740;-84
2023/11/01 08:46:35;;;;;;;3.77;3.13;;;;;;;14.44;95.28;97330.91;4174261;28;20652;-84
2023/11/01 08:48:38;;;;;;;4.70;3.10;;;;;;;14.62;95.21;97336.03;4180397;28;21069;-84
2023/11/01 08:50:42;;;;;;;3.60;2.93;;;;;;;14.79;93.98;97337.03;4176181;28;20621;-84
2023/11/01 08:52:45;;;;;;;6.03;3.60;;;;;;;14.90;95.15;97336.78;4178992;28;21230;-84
2023/11/01 08:54:50;;;;;;;4.23;3.70;;;;;;;15.00;93.54;97343.63;4193811;28;20604;-84
2023/11/01 08:56:54;;;;;;;4.70;3.43;;;;;;;15.11;93.96;97343.44;4191605;28;20636;-84
2023/11/01 08:58:58;;;;;;;3.47;2.40;;;;;;;15.23;92.41;97347.47;4204111;28;21232;-84
2023/11/01 09:01:01;;;;;;;6.17;2.20;;;;;;;15.31;93.22;97347.56;4162309;28;20625;-84
2023/11/01 09:03:04;;;;;;;3.10;1.60;;;;;;;15.24;90.65;97338.63;4175974;28;20623;-84
2023/11/01 09:05:08;;;;;;;2.97;1.13;;;;;;;15.23;88.92;97337.81;4193699;28;20638;-84
2023/11/01 09:07:11;;;;;;;2.23;1.00;;;;;;;15.36;89.47;97337.41;4156052;28;20982;-84
2023/11/01 09:09:14;;;;;;;2.43;1.27;;;;;;;15.46;86.95;97335.53;4190014;28;21025;-84
2023/11/01 09:11:23;;;;;;;2.83;1.00;;;;;;;15.57;87.28;97326.44;4157157;28;20968;-83
2023/11/01 09:13:26;;;;;;;4.00;1.47;;;;;;;15.70;87.08;97332.09;4188218;28;20632;-84
2023/11/01 09:15:29;;;;;;;3.63;1.10;;;;;;;15.78;87.00;97334.75;4187583;28;20915;-84
2023/11/01 09:17:33;;;;;;;1.77;1.03;;;;;;;15.77;85.24;97333.13;4172127;28;20630;-84
2023/11/01 09:19:36;;;;;;;3.30;1.30;;;;;;;15.72;84.39;97330.13;4175854;28;20638;-84
2023/11/01 09:21:39;;;;;;;2.00;1.20;;;;;;;15.80;83.94;97335.44;4171513;28;20630;-84
2023/11/01 09:23:42;;;;;;;2.20;1.40;;;;;;;15.93;81.58;97332.41;4190423;28;20626;-84
2023/11/01 09:25:46;;;;;;;3.50;1.20;;;;;;;16.02;82.08;97331.47;4179584;28;20629;-84
2023/11/01 09:27:50;;;;;;;4.63;1.50;;;;;;;16.03;81.62;97340.00;4171691;28;21237;-84
2023/11/01 09:29:53;;;;;;;3.83;1.10;;;;;;;16.13;82.52;97334.63;4178979;28;20615;-84
2023/11/01 09:31:56;;;;;;;2.70;1.67;;;;;;;16.14;79.22;97334.47;4192649;28;20728;-84
2023/11/01 09:33:59;;;;;;;2.80;1.00;;;;;;;16.21;80.43;97329.44;4195088;28;20639;-84
2023/11/01 09:36:02;;;;;;;3.77;1.50;;;;;;;16.27;79.50;97331.47;4179275;28;20621;-84
2023/11/01 09:38:05;;;;;;;2.90;1.30;;;;;;;16.30;80.48;97334.59;4179245;28;20630;-84
2023/11/01 09:40:11;;;;;;;2.27;0.90;;;;;;;16.23;77.53;97340.63;4212563;28;20659;-84
2023/11/01 09:42:20;;;;;;;2.70;1.30;;;;;;;16.31;81.56;97345.94;4162834;28;20731;-83
2023/11/01 09:44:24;;;;;;;2.50;1.20;;;;;;;16.42;80.47;97330.69;4188057;28;20634;-84
2023/11/01 09:46:27;;;;;;;4.13;1.13;;;;;;;16.51;81.61;97329.75;4181390;28;20631;-84
2023/11/01 09:48:31;;;;;;;3.30;1.40;;;;;;;16.57;80.06;97313.31;4186550;28;20648;-84
2023/11/01 09:50:37;;;;;;;2.37;1.00;;;;;;;16.59;80.39;97322.66;4194664;28;20625;-84
2023/11/01 09:52:40;;;;;;;1.90;0.87;;;;;;;16.55;78.32;97326.63;4175722;28;20689;-84
2023/11/01 09:54:43;;;;;;;2.13;1.00;;;;;;;16.50;79.37;97319.38;4181327;28;20623;-84
2023/11/01 09:56:47;;;;;;;4.70;1.20;;;;;;;16.46;78.87;97316.22;4165340;28;20609;-84
2023/11/01 09:58:50;;;;;;;2.33;1.20;;;;;;;16.52;78.94;97315.56;4178129;28;21166;-84
2023/11/01 10:00:57;;;;;;;1.70;1.20;;;;;;;16.46;78.25;97310.94;4192764;28;20631;-84
2023/11/01 10:03:01;;;;;;;2.10;1.10;;;;;;;16.50;77.67;97314.09;4178968;28;21088;-84
2023/11/01 10:05:05;;;;;;;2.33;1.30;;;;;;;16.50;77.95;97307.84;4175956;28;20693;-84
2023/11/01 10:07:09;;;;;;;2.67;1.30;;;;;;;16.55;78.90;97302.94;4178450;28;20742;-84